createdAt,value
2023-05-18T00:00:13.995Z,99521.31
2023-05-18T00:02:41.958Z,99520.58
2023-05-18T00:05:12.114Z,99510.64
2023-05-18T00:07:40.705Z,99483.63
2023-05-18T00:10:08.581Z,99483.81
2023-05-18T00:12:37.529Z,99485.05
2023-05-18T00:15:04.874Z,99482.48
2023-05-18T00:17:31.763Z,99478.72
2023-05-18T00:19:59.071Z,99481.99
2023-05-18T00:22:26.024Z,99486.43
2023-05-18T00:24:54.119Z,99489.05
2023-05-18T00:27:20.930Z,99495.63
2023-05-18T00:29:47.969Z,99489.13
2023-05-18T00:32:14.855Z,99482.77
2023-05-18T00:34:41.702Z,99474.65
2023-05-18T00:37:08.513Z,99479.98
2023-05-18T00:39:35.484Z,99482.02
2023-05-18T00:42:03.095Z,99479.44
2023-05-18T00:44:30.099Z,99483.38
2023-05-18T00:46:57.137Z,99477.27
2023-05-18T00:49:23.951Z,99483.72
2023-05-18T00:51:50.806Z,99480.35
2023-05-18T00:54:18.868Z,99486.14
2023-05-18T00:56:46.217Z,99479.01
2023-05-18T00:59:13.398Z,99486.30
2023-05-18T01:01:43.237Z,99489.87
2023-05-18T01:04:13.711Z,99493.09
2023-05-18T01:06:42.435Z,99490.52
2023-05-18T01:09:11.284Z,99488.66
2023-05-18T01:12:12.536Z,99493.88
2023-05-18T01:14:50.225Z,99485.34
2023-05-18T01:17:42.022Z,99481.33
2023-05-18T01:20:15.147Z,99484.58
2023-05-18T01:22:50.068Z,99485.29
2023-05-18T01:25:36.070Z,99486.59
2023-05-18T01:28:09.673Z,99497.69
2023-05-18T01:30:39.707Z,99502.41
2023-05-18T01:33:08.941Z,99507.10
2023-05-18T01:35:36.652Z,99506.55
2023-05-18T01:38:04.108Z,99506.13
2023-05-18T01:40:33.237Z,99507.48
2023-05-18T01:43:03.654Z,99511.13
2023-05-18T01:45:30.654Z,99517.63
2023-05-18T01:47:59.592Z,99514.15
2023-05-18T01:50:31.627Z,99512.16
2023-05-18T01:53:05.932Z,99519.10
2023-05-18T01:55:34.200Z,99518.34
2023-05-18T01:58:01.364Z,99521.81
2023-05-18T02:00:28.516Z,99521.04
2023-05-18T02:02:55.662Z,99519.38
2023-05-18T02:05:23.219Z,99525.25
2023-05-18T02:07:50.051Z,99527.30
2023-05-18T02:10:17.422Z,99526.42
2023-05-18T02:12:48.585Z,99531.60
2023-05-18T02:15:15.609Z,99535.52
2023-05-18T02:17:42.969Z,99530.80
2023-05-18T02:20:10.728Z,99532.05
2023-05-18T02:22:37.892Z,99536.08
2023-05-18T02:25:06.766Z,99538.98
2023-05-18T02:27:35.471Z,99537.48
2023-05-18T02:30:08.217Z,99538.44
2023-05-18T02:32:38.590Z,99538.81
2023-05-18T02:35:07.736Z,99540.48
2023-05-18T02:37:39.956Z,99537.94
2023-05-18T02:40:12.091Z,99541.42
2023-05-18T02:42:40.250Z,99545.44
2023-05-18T02:45:07.749Z,99546.34
2023-05-18T02:47:34.882Z,99547.23
2023-05-18T02:50:02.440Z,99550.03
2023-05-18T02:52:30.372Z,99549.78
2023-05-18T02:54:57.468Z,99546.88
2023-05-18T02:57:36.859Z,99552.77
2023-05-18T03:00:11.216Z,99554.36
2023-05-18T03:02:39.592Z,99555.45
2023-05-18T03:05:07.570Z,99558.98
2023-05-18T03:07:34.691Z,99561.08
2023-05-18T03:10:07.149Z,99558.40
2023-05-18T03:12:34.463Z,99561.52
2023-05-18T03:15:01.269Z,99562.17
2023-05-18T03:17:29.838Z,99558.25
2023-05-18T03:19:56.801Z,99559.77
2023-05-18T03:22:23.610Z,99562.84
2023-05-18T03:24:51.134Z,99562.94
2023-05-18T03:27:22.742Z,99545.16
2023-05-18T03:29:50.196Z,99545.31
2023-05-18T03:32:17.139Z,99542.87
2023-05-18T03:34:47.001Z,99548.15
2023-05-18T03:37:15.327Z,99551.69
2023-05-18T03:39:42.338Z,99557.55
2023-05-18T03:42:09.221Z,99553.88
2023-05-18T03:44:36.266Z,99557.81
2023-05-18T03:47:03.622Z,99558.02
2023-05-18T03:49:33.525Z,99566.02
2023-05-18T03:52:01.917Z,99570.12
2023-05-18T03:54:30.292Z,99572.72
2023-05-18T03:56:57.243Z,99564.45
2023-05-18T03:59:24.082Z,99568.23
2023-05-18T04:01:53.181Z,99565.29
2023-05-18T04:04:22.573Z,99565.17
2023-05-18T04:06:50.930Z,99563.33
2023-05-18T04:09:18.613Z,99573.96
2023-05-18T04:11:45.452Z,99578.09
2023-05-18T04:14:13.631Z,99580.64
2023-05-18T04:16:40.965Z,99577.04
2023-05-18T04:19:08.487Z,99583.17
2023-05-18T04:21:36.822Z,99589.59
2023-05-18T04:24:04.709Z,99595.55
2023-05-18T04:26:38.237Z,99602.48
2023-05-18T04:29:07.277Z,99604.46
2023-05-18T04:31:35.318Z,99607.11
2023-05-18T04:34:02.288Z,99601.48
2023-05-18T04:36:34.561Z,99601.59
2023-05-18T04:39:07.275Z,99606.62
2023-05-18T04:41:34.798Z,99614.29
2023-05-18T04:44:03.073Z,99614.56
2023-05-18T04:46:30.420Z,99617.20
2023-05-18T04:48:57.471Z,99616.70
2023-05-18T04:51:24.290Z,99623.14
2023-05-18T04:53:52.602Z,99626.06
2023-05-18T04:56:22.626Z,99622.69
2023-05-18T04:58:49.767Z,99626.75
2023-05-18T05:01:17.923Z,99629.27
2023-05-18T05:03:45.192Z,99621.18
2023-05-18T05:06:12.330Z,99622.63
2023-05-18T05:08:39.506Z,99624.98
2023-05-18T05:11:06.659Z,99626.13
2023-05-18T05:13:35.508Z,99624.60
2023-05-18T05:16:02.944Z,99629.63
2023-05-18T05:18:30.339Z,99631.40
2023-05-18T05:20:58.801Z,99630.41
2023-05-18T05:23:26.832Z,99632.77
2023-05-18T05:25:54.339Z,99634.56
2023-05-18T05:28:21.283Z,99635.09
2023-05-18T05:30:48.554Z,99637.05
2023-05-18T05:33:16.838Z,99635.17
2023-05-18T05:35:44.051Z,99638.42
2023-05-18T05:38:11.209Z,99638.80
2023-05-18T05:40:38.403Z,99647.96
2023-05-18T05:43:05.712Z,99648.75
2023-05-18T05:45:33.534Z,99651.48
2023-05-18T05:48:03.155Z,99661.30
2023-05-18T05:50:31.594Z,99657.79
2023-05-18T05:53:01.010Z,99652.32
2023-05-18T05:55:31.215Z,99648.40
2023-05-18T05:57:58.214Z,99648.54
2023-05-18T06:00:27.022Z,99658.23
2023-05-18T06:02:59.047Z,99655.80
2023-05-18T06:05:35.241Z,99663.00
2023-05-18T06:08:04.236Z,99662.90
2023-05-18T06:10:32.311Z,99667.11
2023-05-18T06:12:59.978Z,99671.41
2023-05-18T06:15:38.636Z,99678.08
2023-05-18T06:18:05.579Z,99680.35
2023-05-18T06:20:32.862Z,99678.29
2023-05-18T06:23:00.422Z,99683.48
2023-05-18T06:25:38.760Z,99681.13
2023-05-18T06:28:25.659Z,99674.21
2023-05-18T06:31:18.192Z,99679.88
2023-05-18T06:33:49.171Z,99677.23
2023-05-18T06:36:16.492Z,99681.20
2023-05-18T06:38:44.565Z,99687.86
2023-05-18T06:41:11.333Z,99685.86
2023-05-18T06:43:40.790Z,99687.86
2023-05-18T06:46:30.734Z,99694.56
2023-05-18T06:49:00.825Z,99685.92
2023-05-18T06:51:27.947Z,99687.09
2023-05-18T06:53:56.965Z,99690.27
2023-05-18T06:56:24.026Z,99696.35
2023-05-18T06:58:51.765Z,99695.85
2023-05-18T07:01:18.847Z,99701.20
2023-05-18T07:03:46.104Z,99697.61
2023-05-18T07:06:14.600Z,99700.54
2023-05-18T07:08:41.533Z,99704.75
2023-05-18T07:11:09.242Z,99703.64
2023-05-18T07:13:36.220Z,99699.63
2023-05-18T07:16:03.185Z,99704.70
2023-05-18T07:18:30.390Z,99704.14
2023-05-18T07:20:57.133Z,99703.49
2023-05-18T07:23:24.332Z,99703.43
2023-05-18T07:25:51.251Z,99703.20
2023-05-18T07:28:18.386Z,99708.69
2023-05-18T07:30:45.469Z,99709.71
2023-05-18T07:33:12.641Z,99710.67
2023-05-18T07:35:39.733Z,99716.20
2023-05-18T07:38:06.865Z,99718.58
2023-05-18T07:40:33.826Z,99718.67
2023-05-18T07:43:00.671Z,99717.23
2023-05-18T07:45:27.628Z,99714.01
2023-05-18T07:47:54.600Z,99719.84
2023-05-18T07:50:21.795Z,99725.12
2023-05-18T07:52:48.741Z,99728.56
2023-05-18T07:55:15.991Z,99724.66
2023-05-18T07:57:42.948Z,99720.78
2023-05-18T08:00:10.916Z,99725.02
2023-05-18T08:02:42.590Z,99728.48
2023-05-18T08:05:10.575Z,99729.05
2023-05-18T08:07:37.781Z,99727.45
2023-05-18T08:10:05.589Z,99731.23
2023-05-18T08:12:32.943Z,99728.95
2023-05-18T08:15:00.102Z,99724.83
2023-05-18T08:17:27.090Z,99724.00
2023-05-18T08:19:54.163Z,99725.71
2023-05-18T08:22:21.118Z,99726.52
2023-05-18T08:24:48.078Z,99730.56
2023-05-18T08:27:15.394Z,99728.05
2023-05-18T08:29:42.230Z,99722.71
2023-05-18T08:32:09.267Z,99726.36
2023-05-18T08:34:36.211Z,99724.59
2023-05-18T08:37:03.486Z,99721.88
2023-05-18T08:39:31.979Z,99725.64
2023-05-18T08:42:03.414Z,99728.20
2023-05-18T08:44:38.119Z,99729.02
2023-05-18T08:47:08.770Z,99729.06
2023-05-18T08:49:35.575Z,99728.67
2023-05-18T08:52:15.652Z,99725.48
2023-05-18T08:54:42.589Z,99720.03
2023-05-18T08:57:12.370Z,99725.90
2023-05-18T08:59:42.823Z,99723.10
2023-05-18T09:02:10.138Z,99723.02
2023-05-18T09:04:37.325Z,99710.52
2023-05-18T09:07:05.985Z,99699.55
2023-05-18T09:09:33.028Z,99707.65
2023-05-18T09:11:59.988Z,99713.67
2023-05-18T09:14:27.122Z,99714.88
2023-05-18T09:16:54.319Z,99718.51
2023-05-18T09:19:21.750Z,99716.23
2023-05-18T09:21:49.034Z,99720.52
2023-05-18T09:24:16.018Z,99721.79
2023-05-18T09:26:42.994Z,99717.55
2023-05-18T09:29:17.636Z,99727.72
2023-05-18T09:31:46.566Z,99717.90
2023-05-18T09:34:14.605Z,99721.55
2023-05-18T09:36:42.742Z,99725.56
2023-05-18T09:39:11.535Z,99720.20
2023-05-18T09:41:40.109Z,99721.54
2023-05-18T09:44:09.809Z,99716.90
2023-05-18T09:46:37.739Z,99715.00
2023-05-18T09:49:05.918Z,99716.41
2023-05-18T09:51:36.862Z,99722.28
2023-05-18T09:54:06.992Z,99717.94
2023-05-18T09:56:36.976Z,99713.05
2023-05-18T09:59:14.448Z,99710.71
2023-05-18T10:01:57.116Z,99713.36
2023-05-18T10:04:26.613Z,99709.14
2023-05-18T10:06:53.692Z,99716.09
2023-05-18T10:09:20.668Z,99713.36
2023-05-18T10:11:48.448Z,99708.85
2023-05-18T10:14:15.397Z,99708.24
2023-05-18T10:16:42.861Z,99706.98
2023-05-18T10:19:09.872Z,99705.48
2023-05-18T10:21:36.840Z,99700.41
2023-05-18T10:24:04.757Z,99701.27
2023-05-18T10:26:31.755Z,99701.19
2023-05-18T10:28:58.831Z,99702.89
2023-05-18T10:31:26.035Z,99697.95
2023-05-18T10:33:53.181Z,99698.89
2023-05-18T10:36:20.242Z,99694.95
2023-05-18T10:38:47.297Z,99698.96
2023-05-18T10:41:14.296Z,99692.77
2023-05-18T10:43:41.589Z,99705.03
2023-05-18T10:46:08.760Z,99703.19
2023-05-18T10:48:38.606Z,99705.77
2023-05-18T10:51:07.183Z,99700.45
2023-05-18T10:53:34.392Z,99695.65
2023-05-18T10:56:01.913Z,99689.91
2023-05-18T10:58:29.978Z,99692.48
2023-05-18T11:01:01.375Z,99691.69
2023-05-18T11:03:28.840Z,99694.84
2023-05-18T11:06:12.856Z,99697.48
2023-05-18T11:08:49.869Z,99694.30
2023-05-18T11:11:19.214Z,99677.11
2023-05-18T11:13:50.291Z,99676.86
2023-05-18T11:16:19.915Z,99672.27
2023-05-18T11:18:51.979Z,99672.98
2023-05-18T11:21:25.277Z,99664.67
2023-05-18T11:24:14.910Z,99660.76
2023-05-18T11:26:42.832Z,99659.84
2023-05-18T11:29:36.865Z,99663.11
2023-05-18T11:32:05.287Z,99657.58
2023-05-18T11:34:46.393Z,99668.98
2023-05-18T11:37:17.296Z,99665.02
2023-05-18T11:40:00.198Z,99669.18
2023-05-18T11:42:33.028Z,99670.21
2023-05-18T11:45:06.762Z,99668.55
2023-05-18T11:47:33.819Z,99666.36
2023-05-18T11:50:01.003Z,99669.69
2023-05-18T11:52:28.013Z,99673.91
2023-05-18T11:55:00.062Z,99667.36
2023-05-18T11:57:39.577Z,99668.77
2023-05-18T12:00:13.687Z,99670.38
2023-05-18T12:02:47.781Z,99668.33
2023-05-18T12:05:15.397Z,99670.36
2023-05-18T12:07:42.515Z,99674.92
2023-05-18T12:10:12.829Z,99676.28
2023-05-18T12:12:40.188Z,99678.27
2023-05-18T12:15:08.728Z,99681.70
2023-05-18T12:17:45.785Z,99682.52
2023-05-18T12:20:20.823Z,99676.92
2023-05-18T12:22:53.959Z,99679.52
2023-05-18T12:25:23.449Z,99682.57
2023-05-18T12:27:51.824Z,99686.27
2023-05-18T12:30:20.446Z,99683.68
2023-05-18T12:32:51.464Z,99685.26
2023-05-18T12:35:25.405Z,99670.28
2023-05-18T12:37:52.489Z,99659.30
2023-05-18T12:40:20.130Z,99659.80
2023-05-18T12:43:00.338Z,99658.31
2023-05-18T12:45:28.602Z,99661.65
2023-05-18T12:47:56.365Z,99661.23
2023-05-18T12:50:25.792Z,99655.27
2023-05-18T12:52:52.822Z,99651.10
2023-05-18T12:55:23.484Z,99654.27
2023-05-18T12:58:02.150Z,99653.54
2023-05-18T13:00:35.540Z,99651.71
2023-05-18T13:03:12.582Z,99651.30
2023-05-18T13:05:42.663Z,99653.00
2023-05-18T13:08:09.624Z,99650.85
2023-05-18T13:10:36.648Z,99657.14
2023-05-18T13:13:04.033Z,99652.64
2023-05-18T13:15:35.923Z,99649.48
2023-05-18T13:18:04.003Z,99646.19
2023-05-18T13:20:41.613Z,99648.30
2023-05-18T13:23:10.489Z,99654.35
2023-05-18T13:25:37.786Z,99657.55
2023-05-18T13:28:04.973Z,99659.23
2023-05-18T13:30:32.583Z,99659.44
2023-05-18T13:33:00.343Z,99658.36
2023-05-18T13:35:27.289Z,99658.73
2023-05-18T13:37:54.330Z,99654.13
2023-05-18T13:40:22.366Z,99654.37
2023-05-18T13:42:49.331Z,99655.55
2023-05-18T13:45:16.500Z,99658.64
2023-05-18T13:47:45.863Z,99655.11
2023-05-18T13:50:13.094Z,99655.59
2023-05-18T13:52:40.237Z,99650.02
2023-05-18T13:55:08.201Z,99653.19
2023-05-18T13:57:36.182Z,99658.36
2023-05-18T14:00:06.922Z,99656.81
2023-05-18T14:02:39.572Z,99656.89
2023-05-18T14:05:08.821Z,99657.03
2023-05-18T14:07:36.992Z,99651.61
2023-05-18T14:10:05.170Z,99648.23
2023-05-18T14:12:32.553Z,99650.24
2023-05-18T14:14:59.935Z,99653.01
2023-05-18T14:17:30.277Z,99655.38
2023-05-18T14:19:57.758Z,99654.35
2023-05-18T14:22:26.381Z,99652.56
2023-05-18T14:24:54.033Z,99654.39
2023-05-18T14:27:21.011Z,99656.27
2023-05-18T14:29:48.498Z,99656.75
2023-05-18T14:32:15.437Z,99655.85
2023-05-18T14:34:42.717Z,99656.05
2023-05-18T14:37:09.756Z,99664.07
2023-05-18T14:39:37.878Z,99658.20
2023-05-18T14:42:06.330Z,99658.17
2023-05-18T14:44:33.334Z,99660.38
2023-05-18T14:47:00.490Z,99653.34
2023-05-18T14:49:28.158Z,99658.58
2023-05-18T14:51:55.200Z,99658.80
2023-05-18T14:54:22.961Z,99658.72
2023-05-18T14:56:50.028Z,99659.36
2023-05-18T14:59:17.060Z,99657.94
2023-05-18T15:01:44.005Z,99655.92
2023-05-18T15:04:11.081Z,99656.11
2023-05-18T15:06:38.287Z,99652.36
2023-05-18T15:09:06.477Z,99652.95
2023-05-18T15:11:33.609Z,99650.45
2023-05-18T15:14:03.018Z,99652.94
2023-05-18T15:16:31.184Z,99650.83
2023-05-18T15:18:58.284Z,99654.11
2023-05-18T15:21:25.858Z,99652.98
2023-05-18T15:23:53.836Z,99651.54
2023-05-18T15:26:21.418Z,99647.83
2023-05-18T15:28:49.359Z,99643.42
2023-05-18T15:31:16.420Z,99644.87
2023-05-18T15:33:45.106Z,99647.94
2023-05-18T15:36:12.037Z,99648.96
2023-05-18T15:38:39.066Z,99650.11
2023-05-18T15:41:06.167Z,99646.73
2023-05-18T15:43:33.764Z,99651.17
2023-05-18T15:46:00.760Z,99650.00
2023-05-18T15:48:30.031Z,99651.61
2023-05-18T15:50:57.031Z,99650.39
2023-05-18T15:53:24.142Z,99653.59
2023-05-18T15:55:57.813Z,99653.55
2023-05-18T15:58:26.713Z,99655.73
2023-05-18T16:00:54.029Z,99657.00
2023-05-18T16:03:21.502Z,99662.67
2023-05-18T16:05:48.649Z,99664.06
2023-05-18T16:08:18.430Z,99661.39
2023-05-18T16:10:45.428Z,99647.61
2023-05-18T16:13:12.440Z,99648.48
2023-05-18T16:15:39.510Z,99645.59
2023-05-18T16:18:06.542Z,99651.02
2023-05-18T16:20:33.782Z,99649.45
2023-05-18T16:23:01.063Z,99647.34
2023-05-18T16:25:29.152Z,99654.46
2023-05-18T16:27:56.530Z,99650.45
2023-05-18T16:30:23.537Z,99653.41
2023-05-18T16:32:50.630Z,99656.84
2023-05-18T16:35:17.641Z,99660.09
2023-05-18T16:37:45.268Z,99661.05
2023-05-18T16:40:13.144Z,99660.24
2023-05-18T16:42:40.193Z,99659.89
2023-05-18T16:45:07.423Z,99653.36
2023-05-18T16:47:34.508Z,99655.51
2023-05-18T16:50:01.614Z,99659.92
2023-05-18T16:52:28.841Z,99664.59
2023-05-18T16:54:55.866Z,99667.44
2023-05-18T16:57:25.393Z,99667.56
2023-05-18T16:59:54.335Z,99664.49
2023-05-18T17:02:21.716Z,99665.80
2023-05-18T17:04:50.136Z,99666.27
2023-05-18T17:07:17.296Z,99666.06
2023-05-18T17:09:44.429Z,99662.09
2023-05-18T17:12:12.229Z,99666.86
2023-05-18T17:14:39.343Z,99669.05
2023-05-18T17:17:07.088Z,99667.16
2023-05-18T17:19:39.072Z,99667.86
2023-05-18T17:22:06.372Z,99661.83
2023-05-18T17:24:33.324Z,99662.42
2023-05-18T17:27:00.344Z,99667.68
2023-05-18T17:29:27.593Z,99667.18
2023-05-18T17:31:55.182Z,99669.27
2023-05-18T17:34:22.770Z,99676.52
2023-05-18T17:36:49.966Z,99679.87
2023-05-18T17:39:17.018Z,99681.31
2023-05-18T17:41:44.441Z,99685.34
2023-05-18T17:44:14.318Z,99685.27
2023-05-18T17:46:42.087Z,99684.38
2023-05-18T17:49:09.360Z,99687.56
2023-05-18T17:51:36.696Z,99691.51
2023-05-18T17:54:04.300Z,99691.06
2023-05-18T17:56:32.169Z,99695.21
2023-05-18T17:58:59.799Z,99693.98
2023-05-18T18:01:30.313Z,99696.45
2023-05-18T18:03:57.472Z,99698.70
2023-05-18T18:06:24.972Z,99704.94
2023-05-18T18:08:53.931Z,99704.55
2023-05-18T18:11:24.507Z,99707.05
2023-05-18T18:13:51.714Z,99709.02
2023-05-18T18:16:18.776Z,99712.86
2023-05-18T18:18:45.977Z,99714.08
2023-05-18T18:21:13.021Z,99715.45
2023-05-18T18:23:40.585Z,99717.00
2023-05-18T18:26:08.077Z,99716.28
2023-05-18T18:28:35.260Z,99717.02
2023-05-18T18:31:03.351Z,99722.40
2023-05-18T18:33:30.630Z,99724.73
2023-05-18T18:35:57.721Z,99726.33
2023-05-18T18:38:27.060Z,99725.71
2023-05-18T18:40:59.939Z,99729.30
2023-05-18T18:43:28.133Z,99731.48
2023-05-18T18:45:57.282Z,99734.34
2023-05-18T18:48:25.085Z,99732.61
2023-05-18T18:50:52.805Z,99730.41
2023-05-18T18:53:19.838Z,99732.21
2023-05-18T18:55:47.215Z,99732.05
2023-05-18T18:58:16.226Z,99730.55
2023-05-18T19:00:44.142Z,99732.89
2023-05-18T19:03:11.263Z,99732.45
2023-05-18T19:05:38.375Z,99734.20
2023-05-18T19:08:05.671Z,99731.06
2023-05-18T19:10:34.407Z,99723.13
2023-05-18T19:13:05.934Z,99718.73
2023-05-18T19:15:34.898Z,99720.16
2023-05-18T19:18:02.392Z,99716.41
2023-05-18T19:20:29.584Z,99715.89
2023-05-18T19:22:56.657Z,99715.23
2023-05-18T19:25:26.491Z,99714.84
2023-05-18T19:27:55.417Z,99718.73
2023-05-18T19:30:22.580Z,99717.67
2023-05-18T19:32:50.208Z,99718.04
2023-05-18T19:35:19.800Z,99719.66
2023-05-18T19:37:47.654Z,99717.80
2023-05-18T19:40:14.772Z,99717.27
2023-05-18T19:42:41.983Z,99718.78
2023-05-18T19:45:09.228Z,99720.63
2023-05-18T19:47:36.857Z,99719.39
2023-05-18T19:50:04.750Z,99722.25
2023-05-18T19:52:33.821Z,99724.89
2023-05-18T19:55:02.465Z,99726.39
2023-05-18T19:57:29.919Z,99725.63
2023-05-18T19:59:58.050Z,99726.83
2023-05-18T20:02:25.696Z,99730.17
2023-05-18T20:04:53.871Z,99732.25
2023-05-18T20:07:22.787Z,99736.49
2023-05-18T20:09:55.196Z,99736.36
2023-05-18T20:12:22.278Z,99744.27
2023-05-18T20:14:49.433Z,99747.60
2023-05-18T20:17:17.034Z,99744.73
2023-05-18T20:19:49.985Z,99747.81
2023-05-18T20:22:17.646Z,99749.54
2023-05-18T20:24:44.781Z,99751.33
2023-05-18T20:27:16.539Z,99752.77
2023-05-18T20:29:43.598Z,99751.05
2023-05-18T20:32:10.870Z,99749.66
2023-05-18T20:34:37.873Z,99751.13
2023-05-18T20:37:05.735Z,99748.05
2023-05-18T20:39:33.007Z,99751.92
2023-05-18T20:42:00.165Z,99750.55
2023-05-18T20:44:28.958Z,99758.88
2023-05-18T20:46:56.145Z,99756.30
2023-05-18T20:49:25.105Z,99759.91
2023-05-18T20:51:52.090Z,99760.91
2023-05-18T20:54:20.982Z,99763.34
2023-05-18T20:56:48.036Z,99766.37
2023-05-18T20:59:18.276Z,99765.31
2023-05-18T21:01:45.381Z,99765.20
2023-05-18T21:04:13.292Z,99767.52
2023-05-18T21:06:41.085Z,99768.91
2023-05-18T21:09:08.468Z,99770.11
2023-05-18T21:11:35.977Z,99770.66
2023-05-18T21:14:03.159Z,99770.74
2023-05-18T21:16:30.180Z,99771.05
2023-05-18T21:18:57.389Z,99771.74
2023-05-18T21:21:24.564Z,99773.09
2023-05-18T21:23:51.634Z,99771.48
2023-05-18T21:26:18.783Z,99776.66
2023-05-18T21:28:45.776Z,99776.42
2023-05-18T21:31:12.957Z,99776.14
2023-05-18T21:33:40.150Z,99777.39
2023-05-18T21:36:10.158Z,99774.94
2023-05-18T21:38:37.425Z,99776.40
2023-05-18T21:41:04.490Z,99778.13
2023-05-18T21:43:31.614Z,99777.88
2023-05-18T21:45:58.817Z,99778.64
2023-05-18T21:48:25.841Z,99786.85
2023-05-18T21:50:52.863Z,99780.65
2023-05-18T21:53:19.806Z,99785.19
2023-05-18T21:55:46.933Z,99788.29
2023-05-18T21:58:13.861Z,99782.22
2023-05-18T22:00:40.811Z,99778.68
2023-05-18T22:03:07.825Z,99780.70
2023-05-18T22:05:35.086Z,99779.34
2023-05-18T22:08:02.001Z,99777.34
2023-05-18T22:10:31.384Z,99773.94
2023-05-18T22:12:59.399Z,99774.89
2023-05-18T22:15:26.365Z,99771.12
2023-05-18T22:17:54.575Z,99771.97
2023-05-18T22:20:21.705Z,99773.85
2023-05-18T22:22:48.719Z,99774.85
2023-05-18T22:25:18.267Z,99776.29
2023-05-18T22:27:45.918Z,99780.09
2023-05-18T22:30:14.250Z,99783.94
2023-05-18T22:32:41.329Z,99783.40
2023-05-18T22:35:09.649Z,99787.92
2023-05-18T22:37:36.753Z,99787.84
2023-05-18T22:40:06.469Z,99786.92
2023-05-18T22:42:33.805Z,99789.80
2023-05-18T22:45:00.915Z,99787.44
2023-05-18T22:47:28.409Z,99792.87
2023-05-18T22:49:55.581Z,99793.29
2023-05-18T22:52:22.926Z,99795.48
2023-05-18T22:54:50.060Z,99793.17
2023-05-18T22:57:17.043Z,99790.51
2023-05-18T22:59:44.003Z,99786.58
2023-05-18T23:02:11.168Z,99789.83
2023-05-18T23:04:38.392Z,99792.88
2023-05-18T23:07:05.555Z,99793.37
2023-05-18T23:09:32.933Z,99795.05
2023-05-18T23:12:01.449Z,99799.95
2023-05-18T23:14:31.293Z,99799.85
2023-05-18T23:17:01.784Z,99802.57
2023-05-18T23:19:28.962Z,99803.92
2023-05-18T23:21:56.126Z,99804.70
2023-05-18T23:24:23.102Z,99804.08
2023-05-18T23:26:50.080Z,99798.30
2023-05-18T23:29:17.057Z,99796.17
2023-05-18T23:31:44.115Z,99788.48
2023-05-18T23:34:11.378Z,99794.56
2023-05-18T23:36:38.977Z,99791.61
2023-05-18T23:39:07.471Z,99791.77
2023-05-18T23:41:34.458Z,99794.91
2023-05-18T23:44:02.078Z,99797.67
2023-05-18T23:46:30.017Z,99793.60
2023-05-18T23:48:59.975Z,99794.02
2023-05-18T23:51:29.987Z,99797.77
2023-05-18T23:53:57.061Z,99801.05
2023-05-18T23:56:25.038Z,99800.62
2023-05-18T23:58:52.289Z,99798.51
